Aurora, WI

4:14 PM CST on January 28, 2015 (GMT -0600)
N Gilman Dr | Change Station
CLOSE
Current Station
Personal Weather Station
Location: Gilman, WI
Elevation: 1237 ft
Nearby Weather Stations
Active Advisory: Freezing Rain Advisory

Elev 1237 ft 45.17 °N, 90.82 °W | Updated 3 minutes ago

Overcast
Overcast
27.3 °F
Feels Like 23 °F
N
4.0
Wind Variable Wind from SSE
Gusts 12.0 mph

Today
High -- | Low -- °F
--% Chance of Precip.
Yesterday
High -- | Low -- °F
Precip. -- in
7:28 AM 5:04 PM
Waxing Gibbous, 68% visible
Pressure 29.86 in
Visibility 7.0 miles
Clouds Overcast 1200 ft
Windchill 23 °F
Dew Point 22 °F
Humidity 80%
Rainfall 0.00 in
Snow Depth Not available.
UV 0 out of 12
Pollen .10 out of 12
Air Quality Not available.
Flu Activity Not available.
METAR KRCX 282155Z AUTO 12010G16KT 7SM OVC012 M02/M04 A2986 RMK AO2 T10221045

More Conditions Fewer Conditions

Pressure 29.86 in
Visibility 7.0 miles
Clouds Overcast 1200 ft
Windchill 23 °F
Dew Point 22 °F
Humidity 80%
Rainfall 0.00 in
Snow Depth Not available.
UV 0 out of 12
Pollen .10 out of 12
Air Quality Not available.
Flu Activity Not available.
METAR KRCX 282155Z AUTO 12010G16KT 7SM OVC012 M02/M04 A2986 RMK AO2 T10221045

More Conditions Fewer Conditions

10-Day Weather Forecast

Almanac

Astronomy

Jan. 28, 2015 Rise Set
Actual Time
Civil Twilight
Nautical Twilight
Astronomical Twilight
Moon
Length of Visible Light
Length of Day
Tomorrow will be .
, % of the Moon is Illuminated

Today's Extremes

State Highs State Lows

Community

WunderPhotos

Upload Photos

1,791,276 photos uploaded!

WunderBlogs® & News

Nearby

Air Quality

  Air Quality AQ Index Pollutant
Not available.

Snow Depth

Station Depth Elevation

Earthquake Activity

City Distance Mag. Time & Date
Minimum magnitude displayed is 2.5.

Coastal Water Temperatures

Place Temperature

Nearby Weather Stations